createdAt,value
2022-11-03T00:00:30.236Z,0.00
2022-11-03T00:01:30.275Z,0.00
2022-11-03T00:02:30.256Z,0.00
2022-11-03T00:03:30.222Z,0.00
2022-11-03T00:04:30.202Z,0.00
2022-11-03T00:05:30.204Z,0.00
2022-11-03T00:06:30.193Z,0.00
2022-11-03T00:07:30.180Z,0.00
2022-11-03T00:08:30.191Z,0.00
2022-11-03T00:09:30.165Z,0.00
2022-11-03T00:10:30.163Z,0.00
2022-11-03T00:11:30.154Z,0.00
2022-11-03T00:12:30.141Z,0.00
2022-11-03T00:13:30.148Z,0.00
2022-11-03T00:14:30.128Z,0.00
2022-11-03T00:15:30.136Z,0.00
2022-11-03T00:16:30.124Z,0.00
2022-11-03T00:17:30.098Z,0.00
2022-11-03T00:18:30.094Z,0.00
2022-11-03T00:19:30.088Z,0.00
2022-11-03T00:20:30.078Z,0.00
2022-11-03T00:21:30.090Z,0.00
2022-11-03T00:22:30.061Z,0.00
2022-11-03T00:23:30.066Z,0.00
2022-11-03T00:24:30.045Z,0.00
2022-11-03T00:25:30.038Z,0.00
2022-11-03T00:26:30.043Z,0.00
2022-11-03T00:27:30.543Z,0.00
2022-11-03T00:29:30.293Z,0.00
2022-11-03T00:30:30.290Z,0.00
2022-11-03T00:31:31.389Z,0.00
2022-11-03T00:32:31.376Z,0.00
2022-11-03T00:33:31.428Z,0.00
2022-11-03T00:34:31.345Z,0.00
2022-11-03T00:35:31.349Z,0.00
2022-11-03T00:36:31.335Z,0.00
2022-11-03T00:37:31.322Z,0.00
2022-11-03T00:38:31.314Z,0.00
2022-11-03T00:39:31.310Z,0.00
2022-11-03T00:40:31.294Z,0.00
2022-11-03T00:41:31.302Z,0.00
2022-11-03T00:42:31.279Z,0.00
2022-11-03T00:43:31.276Z,0.00
2022-11-03T00:44:31.274Z,0.00
2022-11-03T00:45:31.259Z,0.00
2022-11-03T00:46:31.266Z,0.00
2022-11-03T00:47:31.241Z,0.00
2022-11-03T00:48:31.238Z,0.00
2022-11-03T00:49:31.233Z,0.00
2022-11-03T00:50:31.221Z,0.00
2022-11-03T00:51:31.214Z,0.00
2022-11-03T00:52:31.200Z,0.00
2022-11-03T00:53:31.196Z,0.00
2022-11-03T00:54:31.188Z,0.00
2022-11-03T00:55:31.187Z,0.00
2022-11-03T00:56:31.171Z,0.00
2022-11-03T00:57:31.169Z,0.00
2022-11-03T00:58:31.156Z,0.00
2022-11-03T00:59:31.149Z,0.00
2022-11-03T01:00:31.160Z,0.00
2022-11-03T01:01:31.423Z,0.00
2022-11-03T01:02:31.205Z,0.00
2022-11-03T01:03:32.114Z,0.00
2022-11-03T01:04:31.123Z,0.00
2022-11-03T01:05:31.122Z,0.00
2022-11-03T01:06:31.108Z,0.00
2022-11-03T01:07:31.109Z,0.00
2022-11-03T01:08:31.086Z,0.00
2022-11-03T01:09:31.069Z,0.00
2022-11-03T01:10:31.064Z,0.00
2022-11-03T01:11:31.057Z,0.00
2022-11-03T01:12:31.051Z,0.00
2022-11-03T01:13:31.041Z,0.00
2022-11-03T01:14:31.049Z,0.00
2022-11-03T01:15:31.077Z,0.00
2022-11-03T01:16:31.009Z,0.00
2022-11-03T01:17:31.026Z,0.00
2022-11-03T01:18:31.004Z,0.00
2022-11-03T01:19:30.993Z,0.00
2022-11-03T01:20:30.984Z,0.00
2022-11-03T01:21:30.972Z,0.00
2022-11-03T01:22:30.982Z,0.00
2022-11-03T01:23:30.960Z,0.00
2022-11-03T01:24:30.952Z,0.00
2022-11-03T01:25:30.951Z,0.00
2022-11-03T01:26:30.945Z,0.00
2022-11-03T01:27:30.963Z,0.00
2022-11-03T01:28:30.924Z,0.00
2022-11-03T01:29:30.929Z,0.00
2022-11-03T01:30:30.903Z,0.00
2022-11-03T01:31:30.892Z,0.00
2022-11-03T01:32:30.899Z,0.00
2022-11-03T01:33:30.888Z,0.00
2022-11-03T01:34:30.893Z,0.00
2022-11-03T01:35:30.866Z,0.00
2022-11-03T01:36:30.882Z,0.00
2022-11-03T01:37:30.847Z,0.00
2022-11-03T01:38:30.849Z,0.00
2022-11-03T01:39:30.843Z,0.00
2022-11-03T01:40:30.819Z,0.00
2022-11-03T01:41:31.828Z,0.00
2022-11-03T01:42:30.823Z,0.00
2022-11-03T01:43:30.818Z,0.00
2022-11-03T01:44:30.797Z,0.00
2022-11-03T01:45:30.783Z,0.00
2022-11-03T01:46:30.794Z,0.00
2022-11-03T01:47:30.772Z,0.00
2022-11-03T01:48:30.773Z,0.00
2022-11-03T01:49:30.783Z,0.00
2022-11-03T01:50:30.746Z,0.00
2022-11-03T01:51:30.735Z,0.00
2022-11-03T01:52:30.730Z,0.00
2022-11-03T01:53:30.726Z,0.00
2022-11-03T01:54:30.713Z,0.00
2022-11-03T01:55:30.715Z,0.00
2022-11-03T01:56:30.722Z,0.00
2022-11-03T01:57:30.713Z,0.00
2022-11-03T01:58:30.694Z,0.00
2022-11-03T01:59:30.680Z,0.00
2022-11-03T02:00:30.661Z,0.00
2022-11-03T02:01:30.771Z,0.00
2022-11-03T02:02:30.740Z,0.00
2022-11-03T02:03:30.648Z,0.00
2022-11-03T02:04:30.644Z,0.00
2022-11-03T02:05:30.638Z,0.00
2022-11-03T02:06:30.616Z,0.00
2022-11-03T02:07:30.612Z,0.00
2022-11-03T02:08:30.602Z,0.00
2022-11-03T02:09:30.660Z,0.00
2022-11-03T02:10:30.585Z,0.00
2022-11-03T02:11:30.609Z,0.00
2022-11-03T02:12:30.567Z,0.00
2022-11-03T02:13:30.590Z,0.00
2022-11-03T02:14:30.573Z,0.00
2022-11-03T02:15:30.562Z,0.00
2022-11-03T02:16:30.540Z,0.00
2022-11-03T02:17:30.532Z,0.00
2022-11-03T02:18:30.529Z,0.00
2022-11-03T02:19:30.523Z,0.00
2022-11-03T02:20:30.514Z,0.00
2022-11-03T02:21:30.502Z,0.00
2022-11-03T02:22:30.495Z,0.00
2022-11-03T02:23:30.485Z,0.00
2022-11-03T02:24:30.474Z,0.00
2022-11-03T02:25:30.493Z,0.00
2022-11-03T02:26:30.508Z,0.00
2022-11-03T02:27:30.455Z,0.00
2022-11-03T02:28:30.476Z,0.00
2022-11-03T02:29:30.449Z,0.00
2022-11-03T02:30:30.441Z,0.00
2022-11-03T02:31:30.437Z,0.00
2022-11-03T02:32:30.442Z,0.00
2022-11-03T02:33:30.403Z,0.00
2022-11-03T02:34:30.408Z,0.00
2022-11-03T02:35:30.405Z,0.00
2022-11-03T02:36:30.384Z,0.00
2022-11-03T02:37:30.373Z,0.00
2022-11-03T02:38:31.246Z,0.00
2022-11-03T02:39:30.364Z,0.00
2022-11-03T02:40:30.357Z,0.00
2022-11-03T02:41:30.339Z,0.00
2022-11-03T02:42:30.317Z,0.00
2022-11-03T02:43:31.325Z,0.00
2022-11-03T02:44:30.316Z,0.00
2022-11-03T02:45:30.317Z,0.00
2022-11-03T02:46:30.301Z,0.00
2022-11-03T02:47:30.312Z,0.00
2022-11-03T02:48:30.275Z,0.00
2022-11-03T02:49:30.771Z,0.00
2022-11-03T02:50:30.269Z,0.00
2022-11-03T02:51:31.260Z,0.00
2022-11-03T02:52:30.248Z,0.00
2022-11-03T02:53:30.271Z,0.00
2022-11-03T02:54:30.244Z,0.00
2022-11-03T02:55:30.232Z,0.00
2022-11-03T02:56:31.177Z,0.00
2022-11-03T02:57:30.208Z,0.00
2022-11-03T02:58:30.231Z,0.00
2022-11-03T02:59:30.196Z,0.00
2022-11-03T03:00:30.198Z,0.00
2022-11-03T03:01:30.485Z,0.00
2022-11-03T03:02:30.215Z,0.00
2022-11-03T03:03:30.160Z,0.00
2022-11-03T03:04:30.151Z,0.00
2022-11-03T03:05:30.144Z,0.00
2022-11-03T03:06:31.136Z,0.00
2022-11-03T03:07:30.131Z,0.00
2022-11-03T03:08:30.156Z,0.00
2022-11-03T03:09:30.112Z,0.00
2022-11-03T03:10:30.101Z,0.00
2022-11-03T03:11:30.096Z,0.00
2022-11-03T03:12:30.098Z,0.00
2022-11-03T03:13:30.084Z,0.00
2022-11-03T03:14:30.073Z,0.00
2022-11-03T03:15:30.075Z,0.00
2022-11-03T03:16:30.062Z,0.00
2022-11-03T03:17:30.048Z,0.00
2022-11-03T03:18:30.040Z,0.00
2022-11-03T03:19:30.041Z,0.00
2022-11-03T03:20:30.043Z,0.00
2022-11-03T03:21:30.020Z,0.00
2022-11-03T03:22:30.005Z,0.00
2022-11-03T03:23:30.000Z,0.00
2022-11-03T03:24:30.009Z,0.00
2022-11-03T03:25:29.978Z,0.00
2022-11-03T03:26:29.982Z,0.00
2022-11-03T03:27:29.966Z,0.00
2022-11-03T03:28:29.965Z,0.00
2022-11-03T03:29:29.953Z,0.00
2022-11-03T03:30:29.942Z,0.00
2022-11-03T03:31:30.681Z,0.00
2022-11-03T03:32:29.936Z,0.00
2022-11-03T03:33:29.950Z,0.00
2022-11-03T03:34:35.326Z,0.00
2022-11-03T03:35:31.900Z,0.00
2022-11-03T03:36:29.896Z,0.00
2022-11-03T03:37:29.890Z,0.00
2022-11-03T03:38:29.883Z,0.00
2022-11-03T03:39:29.880Z,0.00
2022-11-03T03:40:29.863Z,0.00
2022-11-03T03:41:29.858Z,0.00
2022-11-03T03:42:29.853Z,0.00
2022-11-03T03:43:29.847Z,0.00
2022-11-03T03:44:29.851Z,0.00
2022-11-03T03:45:29.831Z,0.00
2022-11-03T03:46:29.822Z,0.00
2022-11-03T03:47:30.756Z,0.00
2022-11-03T03:48:29.811Z,0.00
2022-11-03T03:49:29.800Z,0.00
2022-11-03T03:50:29.788Z,0.00
2022-11-03T03:51:29.786Z,0.00
2022-11-03T03:52:29.770Z,0.00
2022-11-03T03:53:29.765Z,0.00
2022-11-03T03:54:29.766Z,0.00
2022-11-03T03:55:29.760Z,0.00
2022-11-03T03:56:29.753Z,0.00
2022-11-03T03:57:29.741Z,0.00
2022-11-03T03:58:29.717Z,0.00
2022-11-03T03:59:30.723Z,0.00
2022-11-03T04:00:29.735Z,0.00
2022-11-03T04:01:29.797Z,0.00
2022-11-03T04:02:29.742Z,0.00
2022-11-03T04:03:29.694Z,0.00
2022-11-03T04:04:29.721Z,0.00
2022-11-03T04:05:29.682Z,0.00
2022-11-03T04:06:29.672Z,0.00
2022-11-03T04:07:29.667Z,0.00
2022-11-03T04:08:29.652Z,0.00
2022-11-03T04:09:29.676Z,0.00
2022-11-03T04:10:29.638Z,0.00
2022-11-03T04:11:29.631Z,0.00
2022-11-03T04:12:29.632Z,0.00
2022-11-03T04:13:29.612Z,0.00
2022-11-03T04:14:30.262Z,0.00
2022-11-03T04:15:29.622Z,0.00
2022-11-03T04:16:29.592Z,0.00
2022-11-03T04:17:29.587Z,0.00
2022-11-03T04:18:29.576Z,0.00
2022-11-03T04:19:29.562Z,0.00
2022-11-03T04:20:29.577Z,0.00
2022-11-03T04:21:29.560Z,0.00
2022-11-03T04:22:29.560Z,0.00
2022-11-03T04:23:29.534Z,0.00
2022-11-03T04:24:29.521Z,0.00
2022-11-03T04:25:29.522Z,0.00
2022-11-03T04:26:30.271Z,0.00
2022-11-03T04:27:29.511Z,0.00
2022-11-03T04:28:29.503Z,0.00
2022-11-03T04:29:29.501Z,0.00
2022-11-03T04:30:29.483Z,0.00
2022-11-03T04:31:29.481Z,0.00
2022-11-03T04:32:29.476Z,0.00
2022-11-03T04:33:29.462Z,0.00
2022-11-03T04:34:29.461Z,0.00
2022-11-03T04:35:29.814Z,0.00
2022-11-03T04:36:29.434Z,0.00
2022-11-03T04:37:29.438Z,0.00
2022-11-03T04:38:29.449Z,0.00
2022-11-03T04:39:29.424Z,0.00
2022-11-03T04:40:29.404Z,0.00
2022-11-03T04:41:29.401Z,0.00
2022-11-03T04:42:29.401Z,0.00
2022-11-03T04:43:29.385Z,0.00
2022-11-03T04:44:29.423Z,0.00
2022-11-03T04:45:29.367Z,0.00
2022-11-03T04:46:29.360Z,0.00
2022-11-03T04:47:29.344Z,0.00
2022-11-03T04:48:29.340Z,0.00
2022-11-03T04:49:29.339Z,0.00
2022-11-03T04:50:29.324Z,0.00
2022-11-03T04:51:29.321Z,0.00
2022-11-03T04:52:29.309Z,0.00
2022-11-03T04:53:29.305Z,0.00
2022-11-03T04:54:30.269Z,0.00
2022-11-03T04:55:29.284Z,0.00
2022-11-03T04:56:29.323Z,0.00
2022-11-03T04:57:29.278Z,0.00
2022-11-03T04:58:29.267Z,0.00
2022-11-03T04:59:29.270Z,0.00
2022-11-03T05:00:29.251Z,0.00
2022-11-03T05:01:29.298Z,0.00
2022-11-03T05:02:29.242Z,0.00
2022-11-03T05:03:29.245Z,0.00
2022-11-03T05:04:29.239Z,0.00
2022-11-03T05:05:29.773Z,0.00
2022-11-03T05:06:29.213Z,0.00
2022-11-03T05:07:30.205Z,0.00
2022-11-03T05:08:29.192Z,0.00
2022-11-03T05:09:29.191Z,0.00
2022-11-03T05:10:29.205Z,0.00
2022-11-03T05:11:29.175Z,0.00
2022-11-03T05:12:29.186Z,0.00
2022-11-03T05:13:29.154Z,0.00
2022-11-03T05:14:29.150Z,0.00
2022-11-03T05:15:29.211Z,0.00
2022-11-03T05:16:29.131Z,0.00
2022-11-03T05:17:29.141Z,0.00
2022-11-03T05:18:29.120Z,0.00
2022-11-03T05:19:29.697Z,0.00
2022-11-03T05:20:35.596Z,0.00
2022-11-03T05:21:31.092Z,0.00
2022-11-03T05:22:29.086Z,0.00
2022-11-03T05:23:29.079Z,0.00
2022-11-03T05:24:29.074Z,0.00
2022-11-03T05:25:29.056Z,0.00
2022-11-03T05:26:29.055Z,0.00
2022-11-03T05:27:29.051Z,0.00
2022-11-03T05:28:29.051Z,0.00
2022-11-03T05:29:29.035Z,0.00
2022-11-03T05:30:29.012Z,0.00
2022-11-03T05:31:29.008Z,0.00
2022-11-03T05:32:29.005Z,0.00
2022-11-03T05:33:29.006Z,0.00
2022-11-03T05:34:28.986Z,0.00
2022-11-03T05:35:28.983Z,0.00
2022-11-03T05:36:28.970Z,0.00
2022-11-03T05:37:30.699Z,0.00
2022-11-03T05:38:28.993Z,0.00
2022-11-03T05:39:28.947Z,0.00
2022-11-03T05:40:31.719Z,0.00
2022-11-03T05:41:28.930Z,0.00
2022-11-03T05:42:29.700Z,0.00
2022-11-03T05:43:28.933Z,0.00
2022-11-03T05:44:28.913Z,0.00
2022-11-03T05:45:28.902Z,0.00
2022-11-03T05:46:28.903Z,0.00
2022-11-03T05:47:28.945Z,0.00
2022-11-03T05:48:28.893Z,0.00
2022-11-03T05:49:29.882Z,0.00
2022-11-03T05:50:28.869Z,0.00
2022-11-03T05:51:28.851Z,0.00
2022-11-03T05:52:28.846Z,0.00
2022-11-03T05:53:28.840Z,0.00
2022-11-03T05:54:28.832Z,0.00
2022-11-03T05:55:28.830Z,0.00
2022-11-03T05:56:28.815Z,0.00
2022-11-03T05:57:28.801Z,0.00
2022-11-03T05:58:28.831Z,0.00
2022-11-03T05:59:28.793Z,0.00
2022-11-03T06:00:28.788Z,0.00
2022-11-03T06:01:29.876Z,0.00
2022-11-03T06:02:28.846Z,0.00
2022-11-03T06:03:28.762Z,0.00
2022-11-03T06:04:28.772Z,5.62
2022-11-03T06:05:28.745Z,5.62
2022-11-03T06:06:32.205Z,5.62
2022-11-03T06:07:29.726Z,5.62
2022-11-03T06:08:28.763Z,11.25
2022-11-03T06:09:28.718Z,11.25
2022-11-03T06:10:28.722Z,11.25
2022-11-03T06:11:28.701Z,11.25
2022-11-03T06:12:28.693Z,11.25
2022-11-03T06:13:28.691Z,11.25
2022-11-03T06:14:28.674Z,11.25
2022-11-03T06:15:28.671Z,11.25
2022-11-03T06:16:28.670Z,11.25
2022-11-03T06:17:28.666Z,11.25
2022-11-03T06:18:28.647Z,11.25
2022-11-03T06:19:28.643Z,11.25
2022-11-03T06:20:28.629Z,11.25
2022-11-03T06:21:28.627Z,11.25
2022-11-03T06:22:28.642Z,11.25
2022-11-03T06:23:28.637Z,16.88
2022-11-03T06:24:28.597Z,16.88
2022-11-03T06:25:29.304Z,16.88
2022-11-03T06:26:29.286Z,16.88
2022-11-03T06:27:28.589Z,16.88
2022-11-03T06:28:28.594Z,16.88
2022-11-03T06:29:28.588Z,22.50
2022-11-03T06:30:28.605Z,22.50
2022-11-03T06:31:28.552Z,22.50
2022-11-03T06:32:28.554Z,22.50
2022-11-03T06:33:29.284Z,22.50
2022-11-03T06:34:28.532Z,28.12
2022-11-03T06:35:28.520Z,28.12
2022-11-03T06:36:28.520Z,28.12
2022-11-03T06:37:28.505Z,28.12
2022-11-03T06:38:58.343Z,33.75
2022-11-03T06:39:31.297Z,33.75
2022-11-03T06:40:29.498Z,33.75
2022-11-03T06:41:28.470Z,33.75
2022-11-03T06:42:31.920Z,39.38
2022-11-03T06:43:29.454Z,39.38
2022-11-03T06:44:28.459Z,39.38
2022-11-03T06:45:28.438Z,39.38
2022-11-03T06:46:28.436Z,45.00
2022-11-03T06:47:28.543Z,45.00
2022-11-03T06:48:28.424Z,45.00
2022-11-03T06:49:28.415Z,45.00
2022-11-03T06:50:28.415Z,45.00
2022-11-03T06:51:28.392Z,45.00
2022-11-03T06:52:28.391Z,50.62
2022-11-03T06:53:28.384Z,50.62
2022-11-03T06:54:28.366Z,50.62
2022-11-03T06:55:28.359Z,50.62
2022-11-03T06:56:28.355Z,56.25
2022-11-03T06:57:28.370Z,56.25
2022-11-03T06:58:28.339Z,56.25
2022-11-03T06:59:28.329Z,56.25
2022-11-03T07:00:34.029Z,61.88
2022-11-03T07:01:30.523Z,61.88
2022-11-03T07:02:28.433Z,61.88
2022-11-03T07:03:28.293Z,61.88
2022-11-03T07:04:28.291Z,67.50
2022-11-03T07:05:28.293Z,67.50
2022-11-03T07:06:28.280Z,67.50
2022-11-03T07:07:28.272Z,67.50
2022-11-03T07:08:28.273Z,73.12
2022-11-03T07:09:28.255Z,73.12
2022-11-03T07:10:28.248Z,73.12
2022-11-03T07:11:28.241Z,73.12
2022-11-03T07:12:28.226Z,78.75
2022-11-03T07:13:28.233Z,78.75
2022-11-03T07:14:28.208Z,78.75
2022-11-03T07:15:28.206Z,78.75
2022-11-03T07:16:28.201Z,78.75
2022-11-03T07:17:28.185Z,84.38
2022-11-03T07:18:28.182Z,84.38
2022-11-03T07:19:28.170Z,84.38
2022-11-03T07:20:28.216Z,84.38
2022-11-03T07:21:28.158Z,84.38
2022-11-03T07:22:28.274Z,84.38
2022-11-03T07:23:28.143Z,84.38
2022-11-03T07:24:28.140Z,90.00
2022-11-03T07:25:29.825Z,90.00
2022-11-03T07:26:28.110Z,90.00
2022-11-03T07:27:28.105Z,90.00
2022-11-03T07:28:28.100Z,90.00
2022-11-03T07:29:28.087Z,90.00
2022-11-03T07:30:28.113Z,90.00
2022-11-03T07:31:28.071Z,90.00
2022-11-03T07:32:28.064Z,95.62
2022-11-03T07:33:31.715Z,95.62
2022-11-03T07:34:28.123Z,95.62
2022-11-03T07:35:41.665Z,101.25
2022-11-03T07:36:29.029Z,101.25
2022-11-03T07:37:28.043Z,106.88
2022-11-03T07:38:28.014Z,106.88
2022-11-03T07:39:28.003Z,112.50
2022-11-03T07:40:28.147Z,112.50
2022-11-03T07:41:31.166Z,118.12
2022-11-03T07:42:29.002Z,118.12
2022-11-03T07:43:28.040Z,123.75
2022-11-03T07:44:28.976Z,123.75
2022-11-03T07:45:28.075Z,129.38
2022-11-03T07:46:29.716Z,129.38
2022-11-03T07:47:27.964Z,135.00
2022-11-03T07:48:27.939Z,135.00
2022-11-03T07:49:27.934Z,140.62
2022-11-03T07:50:27.917Z,140.62
2022-11-03T07:51:27.915Z,146.25
2022-11-03T07:52:28.799Z,146.25
2022-11-03T07:53:27.893Z,151.88
2022-11-03T07:54:27.889Z,157.50
2022-11-03T07:55:28.723Z,157.50
2022-11-03T07:56:29.856Z,163.12
2022-11-03T07:57:27.905Z,163.12
2022-11-03T07:58:27.858Z,168.75
2022-11-03T07:59:27.903Z,168.75
2022-11-03T08:00:27.847Z,174.38
2022-11-03T08:01:27.939Z,174.38
2022-11-03T08:02:27.935Z,180.00
2022-11-03T08:03:27.820Z,180.00
2022-11-03T08:04:27.814Z,180.00
2022-11-03T08:05:27.814Z,185.62
2022-11-03T08:06:28.313Z,185.62
2022-11-03T08:07:27.798Z,185.62
2022-11-03T08:08:27.778Z,191.25
2022-11-03T08:09:27.784Z,191.25
2022-11-03T08:10:27.791Z,191.25
2022-11-03T08:11:29.444Z,191.25
2022-11-03T08:12:28.752Z,191.25
2022-11-03T08:13:27.756Z,196.88
2022-11-03T08:14:28.745Z,196.88
2022-11-03T08:15:27.753Z,196.88
2022-11-03T08:16:27.725Z,196.88
2022-11-03T08:17:27.731Z,196.88
2022-11-03T08:18:27.707Z,196.88
2022-11-03T08:19:27.817Z,196.88
2022-11-03T08:20:27.692Z,202.50
2022-11-03T08:21:27.683Z,202.50
2022-11-03T08:22:27.673Z,202.50
2022-11-03T08:23:27.988Z,202.50
2022-11-03T08:24:27.655Z,202.50
2022-11-03T08:25:27.643Z,196.88
2022-11-03T08:26:27.635Z,196.88
2022-11-03T08:27:27.652Z,196.88
2022-11-03T08:28:27.635Z,196.88
2022-11-03T08:29:27.614Z,191.25
2022-11-03T08:30:27.609Z,191.25
2022-11-03T08:31:27.602Z,191.25
2022-11-03T08:32:27.595Z,185.62
2022-11-03T08:34:27.575Z,185.62
2022-11-03T08:35:30.099Z,191.25
2022-11-03T08:36:29.558Z,191.25
2022-11-03T08:37:28.307Z,196.88
2022-11-03T08:38:27.559Z,202.50
2022-11-03T08:39:27.543Z,202.50
2022-11-03T08:40:27.538Z,196.88
2022-11-03T08:41:27.557Z,196.88
2022-11-03T08:42:27.515Z,202.50
2022-11-03T08:43:27.511Z,208.12
2022-11-03T08:44:27.527Z,208.12
2022-11-03T08:45:27.492Z,208.12
2022-11-03T08:46:28.480Z,213.75
2022-11-03T08:47:27.475Z,219.38
2022-11-03T08:48:27.465Z,219.38
2022-11-03T08:49:27.462Z,219.38
2022-11-03T08:50:27.474Z,213.75
2022-11-03T08:51:27.442Z,208.12
2022-11-03T08:52:27.437Z,208.12
2022-11-03T08:53:27.461Z,208.12
2022-11-03T08:54:27.436Z,202.50
2022-11-03T08:55:27.423Z,196.88
2022-11-03T08:56:28.311Z,196.88
2022-11-03T08:57:27.404Z,213.75
2022-11-03T08:58:27.406Z,219.38
2022-11-03T08:59:27.380Z,219.38
2022-11-03T09:00:27.373Z,225.00
2022-11-03T09:01:27.432Z,225.00
2022-11-03T09:02:27.404Z,219.38
2022-11-03T09:03:27.384Z,219.38
2022-11-03T09:04:27.431Z,213.75
2022-11-03T09:05:27.339Z,219.38
2022-11-03T09:06:27.338Z,219.38
2022-11-03T09:10:32.382Z,258.75
2022-11-03T09:11:29.296Z,258.75
2022-11-03T09:12:27.291Z,264.38
2022-11-03T09:13:27.278Z,281.25
2022-11-03T09:14:27.822Z,281.25
2022-11-03T09:15:27.260Z,286.88
2022-11-03T09:16:27.259Z,292.50
2022-11-03T09:17:27.252Z,292.50
2022-11-03T09:18:27.244Z,298.12
2022-11-03T09:19:27.242Z,303.75
2022-11-03T09:20:27.219Z,309.38
2022-11-03T09:21:27.211Z,303.75
2022-11-03T09:22:27.208Z,309.38
2022-11-03T09:23:27.213Z,315.00
2022-11-03T09:24:27.185Z,331.88
2022-11-03T09:25:27.180Z,337.50
2022-11-03T09:26:27.185Z,348.75
2022-11-03T09:27:27.171Z,348.75
2022-11-03T09:28:27.442Z,354.38
2022-11-03T09:29:32.857Z,354.38
2022-11-03T09:30:29.149Z,348.75
2022-11-03T09:31:34.856Z,348.75
2022-11-03T09:32:27.795Z,360.00
2022-11-03T09:33:27.118Z,360.00
2022-11-03T09:34:27.120Z,354.38
2022-11-03T09:35:27.105Z,354.38
2022-11-03T09:36:27.097Z,348.75
2022-11-03T09:37:27.105Z,360.00
2022-11-03T09:38:27.093Z,354.38
2022-11-03T09:39:27.086Z,343.12
2022-11-03T09:40:27.096Z,337.50
2022-11-03T09:41:44.300Z,331.88
2022-11-03T09:42:28.069Z,331.88
2022-11-03T09:43:27.047Z,337.50
2022-11-03T09:44:27.038Z,331.88
2022-11-03T09:45:27.026Z,320.62
2022-11-03T09:46:27.023Z,320.62
2022-11-03T09:47:27.017Z,320.62
2022-11-03T09:48:27.004Z,315.00
2022-11-03T09:49:27.001Z,309.38
2022-11-03T09:50:27.001Z,309.38
2022-11-03T09:51:26.981Z,309.38
2022-11-03T09:52:27.804Z,309.38
2022-11-03T09:53:28.824Z,315.00
2022-11-03T09:54:27.853Z,320.62
2022-11-03T09:55:26.968Z,326.25
2022-11-03T09:56:26.961Z,326.25
2022-11-03T09:57:26.939Z,326.25
2022-11-03T09:58:26.931Z,326.25
2022-11-03T09:59:26.917Z,315.00
2022-11-03T10:00:26.906Z,309.38
2022-11-03T10:01:26.941Z,298.12
2022-11-03T10:02:26.976Z,286.88
2022-11-03T10:03:26.888Z,298.12
2022-11-03T10:04:26.873Z,281.25
2022-11-03T10:05:27.777Z,275.62
2022-11-03T10:06:26.861Z,281.25
2022-11-03T10:07:26.845Z,281.25
2022-11-03T10:08:26.848Z,275.62
2022-11-03T10:09:26.837Z,275.62
2022-11-03T10:10:26.876Z,281.25
2022-11-03T10:11:26.822Z,264.38
2022-11-03T10:12:26.813Z,264.38
2022-11-03T10:13:26.834Z,253.12
2022-11-03T10:14:26.809Z,253.12
2022-11-03T10:15:26.826Z,253.12
2022-11-03T10:16:26.791Z,258.75
2022-11-03T10:17:26.775Z,270.00
2022-11-03T10:18:26.777Z,275.62
2022-11-03T10:19:26.757Z,286.88
2022-11-03T10:20:26.774Z,281.25
2022-11-03T10:21:26.733Z,270.00
2022-11-03T10:22:26.723Z,275.62
2022-11-03T10:23:26.750Z,270.00
2022-11-03T10:24:26.719Z,264.38
2022-11-03T10:25:27.285Z,270.00
2022-11-03T10:26:26.692Z,270.00
2022-11-03T10:27:26.695Z,270.00
2022-11-03T10:28:28.336Z,275.62
2022-11-03T10:29:28.351Z,275.62
2022-11-03T10:30:29.772Z,275.62
2022-11-03T10:31:26.935Z,286.88
2022-11-03T10:32:26.651Z,292.50
2022-11-03T10:33:26.647Z,292.50
2022-11-03T10:34:26.630Z,298.12
2022-11-03T10:35:26.624Z,303.75
2022-11-03T10:36:26.633Z,303.75
2022-11-03T10:37:26.610Z,298.12
2022-11-03T10:38:26.599Z,292.50
2022-11-03T10:39:26.595Z,292.50
2022-11-03T10:40:47.211Z,292.50
2022-11-03T10:41:28.625Z,298.12
2022-11-03T10:42:30.659Z,303.75
2022-11-03T10:43:28.567Z,315.00
2022-11-03T10:44:26.571Z,326.25
2022-11-03T10:45:26.539Z,331.88
2022-11-03T10:46:56.781Z,331.88
2022-11-03T10:47:29.284Z,326.25
2022-11-03T10:48:26.518Z,331.88
2022-11-03T10:49:26.521Z,326.25
2022-11-03T10:50:26.509Z,331.88
2022-11-03T10:51:26.514Z,331.88
2022-11-03T10:52:26.569Z,320.62
2022-11-03T10:54:27.488Z,309.38
2022-11-03T10:55:26.618Z,309.38
2022-11-03T10:56:26.456Z,303.75
2022-11-03T10:57:26.464Z,303.75
2022-11-03T10:58:26.459Z,292.50
2022-11-03T10:59:26.433Z,286.88
2022-11-03T11:00:26.446Z,286.88
2022-11-03T11:01:26.633Z,286.88
2022-11-03T11:02:26.527Z,286.88
2022-11-03T11:03:26.410Z,281.25
2022-11-03T11:04:26.481Z,281.25
2022-11-03T11:05:26.411Z,281.25
2022-11-03T11:06:26.377Z,281.25
2022-11-03T11:07:26.414Z,286.88
2022-11-03T11:08:26.613Z,298.12
2022-11-03T11:09:27.352Z,303.75
2022-11-03T11:10:26.367Z,309.38
2022-11-03T11:11:26.340Z,320.62
2022-11-03T11:12:26.338Z,320.62
2022-11-03T11:13:26.352Z,326.25
2022-11-03T11:14:26.317Z,337.50
2022-11-03T11:15:26.325Z,343.12
2022-11-03T11:16:28.300Z,337.50
2022-11-03T11:17:27.289Z,337.50
2022-11-03T11:18:26.291Z,337.50
2022-11-03T11:19:26.303Z,343.12
2022-11-03T11:20:26.280Z,326.25
2022-11-03T11:21:26.282Z,326.25
2022-11-03T11:22:26.246Z,320.62
2022-11-03T11:23:27.317Z,315.00
2022-11-03T11:24:26.283Z,309.38
2022-11-03T11:25:26.236Z,298.12
2022-11-03T11:26:26.791Z,292.50
2022-11-03T11:27:26.217Z,281.25
2022-11-03T11:28:26.208Z,281.25
2022-11-03T11:29:26.207Z,275.62
2022-11-03T11:30:26.183Z,275.62
2022-11-03T11:31:26.181Z,275.62
2022-11-03T11:32:26.174Z,281.25
2022-11-03T11:33:26.160Z,281.25
2022-11-03T11:34:26.175Z,292.50
2022-11-03T11:35:26.169Z,298.12
2022-11-03T11:36:26.141Z,298.12
2022-11-03T11:37:26.136Z,303.75
2022-11-03T11:38:26.122Z,303.75
2022-11-03T11:39:26.129Z,309.38
2022-11-03T11:40:26.129Z,315.00
2022-11-03T11:41:26.133Z,309.38
2022-11-03T11:43:27.093Z,298.12
2022-11-03T11:44:26.082Z,298.12
2022-11-03T11:45:26.128Z,298.12
2022-11-03T11:46:26.822Z,292.50
2022-11-03T11:47:26.047Z,286.88
2022-11-03T11:48:26.047Z,281.25
2022-11-03T11:49:26.038Z,275.62
2022-11-03T11:50:26.059Z,264.38
2022-11-03T11:51:26.055Z,258.75
2022-11-03T11:52:26.016Z,258.75
2022-11-03T11:53:30.691Z,258.75
2022-11-03T11:54:27.999Z,264.38
2022-11-03T11:55:25.996Z,270.00
2022-11-03T11:56:26.001Z,270.00
2022-11-03T11:57:26.007Z,275.62
2022-11-03T11:58:25.977Z,275.62
2022-11-03T11:59:26.383Z,275.62
2022-11-03T12:00:26.947Z,270.00
2022-11-03T12:01:25.998Z,270.00
2022-11-03T12:02:25.939Z,270.00
2022-11-03T12:03:25.993Z,270.00
2022-11-03T12:04:25.915Z,270.00
2022-11-03T12:05:25.938Z,281.25
2022-11-03T12:06:26.875Z,286.88
2022-11-03T12:07:25.962Z,286.88
2022-11-03T12:08:25.903Z,286.88
2022-11-03T12:09:26.801Z,281.25
2022-11-03T12:10:27.789Z,270.00
2022-11-03T12:11:25.897Z,258.75
2022-11-03T12:12:25.859Z,253.12
2022-11-03T12:13:25.850Z,247.50
2022-11-03T12:14:26.840Z,241.88
2022-11-03T12:15:25.865Z,241.88
2022-11-03T12:16:25.899Z,241.88
2022-11-03T12:17:25.832Z,247.50
2022-11-03T12:18:26.994Z,247.50
2022-11-03T12:19:25.826Z,247.50
2022-11-03T12:20:25.817Z,247.50
2022-11-03T12:21:25.926Z,247.50
2022-11-03T12:22:26.379Z,241.88
2022-11-03T12:23:25.826Z,241.88
2022-11-03T12:24:26.758Z,236.25
2022-11-03T12:25:26.308Z,230.62
2022-11-03T12:26:26.800Z,230.62
2022-11-03T12:27:26.763Z,225.00
2022-11-03T12:28:25.746Z,225.00
2022-11-03T12:29:25.723Z,225.00
2022-11-03T12:30:25.715Z,225.00
2022-11-03T12:31:25.718Z,225.00
2022-11-03T12:32:33.499Z,230.62
2022-11-03T12:33:28.373Z,236.25
2022-11-03T12:34:25.685Z,241.88
2022-11-03T12:35:25.696Z,241.88
2022-11-03T12:36:25.685Z,241.88
2022-11-03T12:37:25.672Z,241.88
2022-11-03T12:38:25.663Z,236.25
2022-11-03T12:39:25.664Z,236.25
2022-11-03T12:40:25.639Z,236.25
2022-11-03T12:41:25.628Z,241.88
2022-11-03T12:42:25.714Z,241.88
2022-11-03T12:43:25.620Z,236.25
2022-11-03T12:44:25.659Z,236.25
2022-11-03T12:45:25.619Z,230.62
2022-11-03T12:46:25.587Z,230.62
2022-11-03T12:47:25.579Z,225.00
2022-11-03T12:48:25.583Z,225.00
2022-11-03T12:49:25.603Z,225.00
2022-11-03T12:50:27.333Z,225.00
2022-11-03T12:51:25.550Z,225.00
2022-11-03T12:52:25.583Z,225.00
2022-11-03T12:53:25.528Z,219.38
2022-11-03T12:54:25.522Z,219.38
2022-11-03T12:55:25.538Z,213.75
2022-11-03T12:56:25.517Z,213.75
2022-11-03T12:57:25.541Z,213.75
2022-11-03T12:58:25.495Z,208.12
2022-11-03T12:59:25.532Z,208.12
2022-11-03T13:00:25.486Z,208.12
2022-11-03T13:01:25.667Z,202.50